Terminal Aerodrome Forecast
Issued by NWS

Home | Current Version | Previous Version | Text Only | Print | Product List | Glossary On
Versions: 1 2 3 4 5 6 7 8 9 10 11 12 13 14 15 16 17 18 19 20 21 22 23 24
000
FTUS41 KRNK 061732
TAFLWB
TAF
KLWB 061732Z 0618/0718 VRB05KT P6SM VCSH SCT060 BKN100
     FM070000 VRB03KT P6SM BKN080
     FM070600 00000KT 5SM BR SCT100
     FM070900 03003KT 1/4SM FG BKN001
     FM071300 VRB03KT P6SM BKN025
     FM071600 13003KT P6SM SCT025 SCT040=

USA.gov is the U.S. government's official web portal to all federal, state and local government web resources and services.